Tiempo atmosférico en la estación meteorológica de Espolla, Girona (94 m.)



Fecha
DESCASC
Temp. máxima en grados centígrados (hora)
DESCASC
Temp. mínima en grados centígrados (hora)
DESCASC
Temp. media en grados centígrados
DESCASC
Racha de viento máxima en m/sg (hora)
DESCASC
Velocidad máxima media en intervalos de 10 minutos(hora)
DESCASC
Precipitaciones diarias en mm
DESCASC
Precipitaciones de 00:00 a 06:00 en mm
DESCASC
Precipitaciones de 06:00 a 12:00 en mm
DESCASC
Precipitaciones de 12:00 a 18:00 en mm
DESCASC
Precipitaciones de 18:00 a 24:00 en mm
DESCASC
17-02-2019 15.9 (14:10) 1.5 (07:50) 8.7 9.17 (15:40) 6.11 (15:40) 0 0 0 0 0
16-02-2019 16.8 (14:50) 2.7 (05:20) 9.7 5.28 (16:00) 3.61 (15:30) 0 0 0 0 0
15-02-2019 16.8 (16:00) 1.6 (07:20) 9.2 5.56 (16:20) 3.89 (00:10) 0 0 0 0 0
14-02-2019 15.3 (14:40) 3.9 (00:00) 9.6 9.17 (17:10) 5.28 (17:10) 0 0 0 0 0
13-02-2019 14.8 (15:10) 2.7 (00:00) 8.8 6.11 (03:20) 3.61 (02:40) 0 0 0 0 0
12-02-2019 19 (16:30) 2.6 (00:00) 10.8 14.72 (05:50) 7.22 (05:20) 0 0 0 0 0
11-02-2019 14.4 (14:20) 9.4 (00:00) 11.9 21.11 (16:50) 11.11 (01:10) 0 0 0 0 0
10-02-2019 17.4 (15:30) 7.4 (00:00) 12.4 20.28 (21:50) 10.83 (20:40) 0 0 0 0 0
09-02-2019 18.2 (14:50) 5 (00:00) 11.6 6.39 (00:30) 3.89 (15:20) 0 0 0 0 0
08-02-2019 14.7 (13:50) 7.6 (00:00) 11.1 11.11 (00:10) 5.28 (00:10) 0 0 0 0 0
07-02-2019 16.2 (14:30) 4.9 (00:00) 10.6 16.94 (20:30) 8.33 (20:00) 0 0 0 0 0
06-02-2019 16.5 (13:10) 5.1 (00:00) 10.8 5.28 (13:50) 3.61 (13:50) 0 0 0 0 0
05-02-2019 16.4 (16:00) 5.1 (00:00) 10.7 13.89 (15:40) 8.06 (15:50) 2 1.8 0 0.2 0
04-02-2019 14.8 (15:40) 4 (00:00) 9.4 33.61 (00:20) 17.5 (02:20) 0 0 0 0 0
03-02-2019 7.9 (12:50) 4.8 (00:00) 6.4 31.39 (22:50) 17.78 (01:10) 0 0 0 0 0
02-02-2019 10 (00:50) 5.2 (00:00) 7.6 28.33 (23:30) 15 (23:40) 0.4 0 0.4 0 0
01-02-2019 18.5 (15:20) 4.6 (00:00) 11.5 8.61 (15:20) 5.28 (01:20) 0 0 0 0 0
31-01-2019 13.2 (13:30) 2.3 (00:00) 7.7 5.56 (15:30) 3.33 (15:20) 0 0 0 0 0
30-01-2019 12.7 (15:00) 2.5 (00:00) 7.6 23.33 (05:30) 11.67 (05:30) 0 0 0 0 0
29-01-2019 9.2 (11:40) 2.7 (00:00) 5.9 26.11 (02:20) 15 (02:40) 0.6 0.6 0 0 0
28-01-2019 10.2 (15:30) 2.2 (00:00) 6.2 17.5 (21:00) 9.72 (21:00) 7 0 1.2 4.8 1
27-01-2019 14.8 (15:50) 4.7 (00:00) 9.8 21.39 (22:10) 11.67 (21:10) 0 0 0 0 0
26-01-2019 17.7 (14:10) 6.2 (00:00) 12 28.89 (01:10) 15.28 (01:00) 0 0 0 0 0
25-01-2019 13.8 (20:20) 5.4 (00:00) 9.6 30.83 (18:00) 16.39 (21:40) 0 0 0 0 0
24-01-2019 8.8 (15:10) 3 (00:00) 5.9 29.17 (19:00) 16.39 (20:00) 0 0 0 0 0
23-01-2019 8.5 (15:30) 3.1 (00:00) 5.8 18.89 (20:30) 10.56 (15:00) 6.8 0 2.2 3.4 1.2
22-01-2019 10.4 (16:00) -1.8 (-00:0) 4.3 14.72 (01:50) 8.06 (00:30) 0 0 0 0 0
21-01-2019 10.4 (14:30) 5.7 (00:00) 8 21.94 (14:40) 10.83 (15:30) 0 0 0 0 0
20-01-2019 9.3 (15:30) 2.7 (00:00) 6 10.83 (23:59) 5.28 (16:40) 0 0 0 0 0
19-01-2019 13.3 (14:50) 2.7 (00:00) 8 5.28 (08:10) 3.61 (08:40) 0 0 0 0 0

Gráficas

Temp. máximas Temp. mínimas Temp. medias Precipitaciones Rachas de viento máximas Velocidades máximas media en intervalos de 10 minutos

Datos horarios

Fecha y hora oficial Temperatura (ºC) Velocidad del viento (km/h) Dirección del viento Racha (km/h) Dirección de racha Precipitación (mm) Presión (hPa) Tendencia (hPa) Humedad (%)
2019-02-17 23:00:00 9.8 0 Calma 7 Sur 0 -- -- 85
2019-02-17 22:00:00 9.9 0 Calma 5 Oeste 0 -- -- 85
2019-02-17 21:00:00 9.9 3 Noroeste 9 Sur 0 -- -- 86
2019-02-17 20:00:00 9.7 0 Calma 14 Sur 0 -- -- 86
2019-02-17 19:00:00 10.9 7 Sur 23 Sur 0 -- -- 82
2019-02-17 18:00:00 12.5 10 Sur 25 Sur 0 -- -- 77
2019-02-17 17:00:00 14 16 Sur 33 Sur 0 -- -- 72
2019-02-17 16:00:00 14.6 20 Sur 33 Sur 0 -- -- 71
2019-02-17 15:00:00 15.6 17 Sudeste 28 Sudeste 0 -- -- 65
2019-02-17 14:00:00 15.8 5 Sur 14 Sudoeste 0 -- -- 64
2019-02-17 13:00:00 14.2 8 Sudoeste 16 Oeste 0 -- -- 65
2019-02-17 12:00:00 12.3 5 Noroeste 14 Oeste 0 -- -- 71
2019-02-17 11:00:00 9.5 3 Oeste 5 Oeste 0 -- -- 86
2019-02-17 10:00:00 7 0 Calma 6 Noroeste 0 -- -- 93
2019-02-17 09:00:00 4.8 0 Calma 6 Nordeste 0 -- -- 89
2019-02-17 08:00:00 1.6 0 Calma 6 Nordeste 0 -- -- 92
2019-02-17 07:00:00 1.8 3 Nordeste 6 Nordeste 0 -- -- 90
2019-02-17 06:00:00 2.6 4 Nordeste 11 Nordeste 0 -- -- 84
2019-02-17 05:00:00 2.8 4 Nordeste 10 Nordeste 0 -- -- 88
2019-02-17 04:00:00 3.3 5 Norte 9 Norte 0 -- -- 89
2019-02-17 03:00:00 3.1 4 Nordeste 6 Nordeste 0 -- -- 92
2019-02-17 02:00:00 3.3 3 Nordeste 8 Nordeste 0 -- -- 92
2019-02-17 01:00:00 4 4 Nordeste 12 Nordeste 0 -- -- 88
2019-02-17 00:00:00 4.2 3 Nordeste 14 Nordeste 0 -- -- 87
2019-02-16 23:00:00 5.3 12 Nordeste 17 Nordeste 0 -- -- 82
2019-02-16 22:00:00 5.2 10 Nordeste 15 Nordeste 0 -- -- 86
2019-02-16 21:00:00 5.9 6 Nordeste 11 Nordeste 0 -- -- 86
2019-02-16 20:00:00 6.5 8 Nordeste 10 Nordeste 0 -- -- 85
2019-02-16 19:00:00 8.9 5 Norte 8 Norte 0 -- -- 79
2019-02-16 18:00:00 13.2 3 Sudoeste 13 Sur 0 -- -- 67
2019-02-16 17:00:00 14.4 8 Sur 17 Sur 0 -- -- 62
2019-02-16 16:00:00 15 11 Sur 19 Sudeste 0 -- -- 47
2019-02-16 15:00:00 16.8 9 Sur 15 Sur 0 -- -- 47
2019-02-16 14:00:00 16.3 7 Sur 13 Sudoeste 0 -- -- 47
2019-02-16 13:00:00 15.1 6 Sudoeste 13 Sur 0 -- -- 48
2019-02-16 12:00:00 13.4 7 Sudoeste 14 Sudoeste 0 -- -- 65
2019-02-16 11:00:00 11.8 5 Sudoeste 9 Sudoeste 0 -- -- 72
2019-02-16 10:00:00 10.4 4 Sudoeste 7 Sur 0 -- -- 77
2019-02-16 09:00:00 6 0 Calma 9 Nordeste 0 -- -- 86
2019-02-16 08:00:00 3.2 9 Nordeste 15 Nordeste 0 -- -- 87
2019-02-16 07:00:00 3.1 6 Nordeste 10 Nordeste 0 -- -- 93
2019-02-16 06:00:00 3.1 6 Nordeste 10 Nordeste 0 -- -- 93
2019-02-16 05:00:00 2.8 0 Calma 8 Nordeste 0 -- -- 91
2019-02-16 04:00:00 2.9 3 Nordeste 7 Nordeste 0 -- -- 89
2019-02-16 03:00:00 3.6 2 Norte 15 Nordeste 0 -- -- 85
2019-02-16 02:00:00 3.8 0 Calma 12 Nordeste 0 -- -- 86
2019-02-16 01:00:00 4.4 7 Nordeste 14 Nordeste 0 -- -- 86
2019-02-16 00:00:00 4.6 4 Nordeste 12 Nordeste 0 -- -- 88
2019-02-15 23:00:00 4.9 5 Nordeste 11 Nordeste 0 -- -- 87
2019-02-15 22:00:00 5.3 6 Nordeste 12 Nordeste 0 -- -- 86
2019-02-15 21:00:00 6.1 5 Nordeste 9 Nordeste 0 -- -- 84
2019-02-15 20:00:00 7.1 4 Nordeste 12 Nordeste 0 -- -- 83
2019-02-15 19:00:00 9.3 3 Nordeste 9 Nordeste 0 -- -- 77
2019-02-15 18:00:00 13.5 4 Sur 15 Sur 0 -- -- 66
2019-02-15 17:00:00 15.4 9 Sur 20 Sudoeste 0 -- -- 59
2019-02-15 16:00:00 16.8 5 Sur 15 Sudeste 0 -- -- 50
2019-02-15 15:00:00 16.1 5 Sur 14 Sur 0 -- -- 49
2019-02-15 14:00:00 15.2 3 Sudoeste 16 Sur 0 -- -- 43
2019-02-15 13:00:00 14 7 Sur 15 Sudoeste 0 -- -- 46
2019-02-15 12:00:00 12.9 8 Sur 15 Sur 0 -- -- 44
2019-02-15 11:00:00 11 7 Sur 12 Sur 0 -- -- 55
2019-02-15 10:00:00 9.6 5 Sur 13 Nordeste 0 -- -- 61
2019-02-15 09:00:00 5.4 9 Nordeste 17 Nordeste 0 -- -- 78
2019-02-15 08:00:00 1.8 9 Nordeste 17 Nordeste 0 -- -- 89
2019-02-15 07:00:00 1.8 8 Nordeste 12 Nordeste 0 -- -- 90
2019-02-15 06:00:00 2.3 9 Nordeste 15 Nordeste 0 -- -- 92
2019-02-15 05:00:00 2.8 5 Nordeste 10 Nordeste 0 -- -- 92
2019-02-15 04:00:00 2.8 5 Nordeste 10 Nordeste 0 -- -- 91
2019-02-15 03:00:00 3.5 7 Nordeste 18 Nordeste 0 -- -- 88
2019-02-15 02:00:00 3.7 12 Nordeste 17 Nordeste 0 -- -- 90
2019-02-15 01:00:00 4.1 13 Nordeste 17 Nordeste 0 -- -- 88
2019-02-15 00:00:00 4.2 11 Nordeste 17 Nordeste 0 -- -- 89
2019-02-14 23:00:00 3.9 2 Nordeste 8 Nordeste 0 -- -- 90
2019-02-14 22:00:00 4.5 4 Nordeste 8 Nordeste 0 -- -- 89
2019-02-14 21:00:00 5.5 4 Norte 11 Nordeste 0 -- -- 85
2019-02-14 20:00:00 6.9 6 Nordeste 13 Nordeste 0 -- -- 79
2019-02-14 19:00:00 9.4 4 Este 11 Sur 0 -- -- 72
2019-02-14 18:00:00 12.4 6 Sudeste 33 Sur 0 -- -- 62
2019-02-14 17:00:00 13.9 18 Sur 31 Sudeste 0 -- -- 55
2019-02-14 16:00:00 15.3 15 Sudeste 27 Sur 0 -- -- 56
2019-02-14 15:00:00 15 14 Sur 23 Sudeste 0 -- -- 60
2019-02-14 14:00:00 14.5 7 Sudoeste 14 Sur 0 -- -- 59
2019-02-14 13:00:00 12.8 5 Sudoeste 17 Oeste 0 -- -- 57
2019-02-14 12:00:00 11.3 10 Sudoeste 18 Sudoeste 0 -- -- 65
2019-02-14 11:00:00 10.4 7 Sur 12 Sur 0 -- -- 69
2019-02-14 10:00:00 9.7 4 Sur 10 Sur 0 -- -- 76
2019-02-14 09:00:00 6.2 0 Calma 7 Nordeste 0 -- -- 94
2019-02-14 08:00:00 5.1 3 Oeste 17 Nordeste 0 -- -- 89
2019-02-14 07:00:00 4.8 6 Nordeste 14 Nordeste 0 -- -- 93
2019-02-14 06:00:00 5.1 9 Nordeste 12 Nordeste 0 -- -- 90
2019-02-14 05:00:00 5.3 8 Nordeste 12 Nordeste 0 -- -- 93
2019-02-14 04:00:00 4 3 Nordeste 9 Nordeste 0 -- -- 92
2019-02-14 03:00:00 5.2 0 Calma 9 Nordeste 0 -- -- 88
2019-02-14 02:00:00 7.8 7 Nordeste 12 Nordeste 0 -- -- 85
2019-02-14 01:00:00 7 6 Nordeste 14 Nordeste 0 -- -- 86
2019-02-14 00:00:00 5.8 11 Nordeste 16 Nordeste 0 -- -- 86
2019-02-13 23:00:00 5.3 8 Nordeste 15 Nordeste 0 -- -- 84
2019-02-13 22:00:00 4.8 6 Nordeste 12 Nordeste 0 -- -- 85
2019-02-13 21:00:00 5.1 5 Nordeste 10 Nordeste 0 -- -- 82
2019-02-13 20:00:00 5.8 4 Nordeste 10 Nordeste 0 -- -- 79
2019-02-13 19:00:00 7.2 4 Nordeste 6 Norte 0 -- -- 75
2019-02-13 18:00:00 11.3 5 Sudeste 16 Sur 0 -- -- 60
2019-02-13 17:00:00 13.1 10 Sur 20 Sur 0 -- -- 53
2019-02-13 16:00:00 14.5 8 Sur 17 Sur 0 -- -- 47
2019-02-13 15:00:00 14.7 7 Sur 21 Sur 0 -- -- 45
2019-02-13 14:00:00 14.4 9 Sur 18 Sur 0 -- -- 47
2019-02-13 13:00:00 13.8 9 Sur 19 Sur 0 -- -- 50
2019-02-13 12:00:00 13.8 6 Sudoeste 12 Oeste 0 -- -- 49
2019-02-13 11:00:00 12.8 4 Sudoeste 9 Oeste -- -- -- 47
2019-02-13 10:00:00 10.6 0 Calma 7 Norte 0 -- -- 50
2019-02-13 09:00:00 6.5 4 Norte 8 Norte 0 -- -- 60
2019-02-13 08:00:00 4.1 7 Nordeste 20 Nordeste 0 -- -- 68
2019-02-13 07:00:00 5.2 13 Nordeste 20 Nordeste 0 -- -- 61
2019-02-13 06:00:00 3.6 5 Norte 15 Nordeste 0 -- -- 63
2019-02-13 05:00:00 4.3 4 Norte 14 Nordeste 0 -- -- 60
2019-02-13 04:00:00 4.2 3 Noroeste 22 Nordeste 0 -- -- 57
2019-02-13 03:00:00 4.9 11 Nordeste 21 Nordeste 0 -- -- 47
2019-02-13 02:00:00 4 8 Nordeste 19 Nordeste 0 -- -- 49
2019-02-13 01:00:00 3.5 5 Nordeste 15 Nordeste 0 -- -- 51
2019-02-13 00:00:00 2.7 4 Nordeste 8 Nordeste 0 -- -- 59
2019-02-12 23:00:00 2.7 4 Nordeste 8 Este 0 -- -- 63
2019-02-12 22:00:00 4.5 4 Norte 14 Norte 0 -- -- 58
2019-02-12 21:00:00 5.7 3 Norte 10 Norte 0 -- -- 61
2019-02-12 20:00:00 6.7 5 Norte 15 Norte 0 -- -- 70
2019-02-12 19:00:00 7.7 2 Nordeste 10 Norte 0 -- -- 71
2019-02-12 18:00:00 13.1 5 Sudeste 13 Sur 0 -- -- 54
2019-02-12 17:00:00 15.4 12 Sur 22 Norte 0 -- -- 45
2019-02-12 16:00:00 18.2 15 Nordeste 24 Norte 0 -- -- 14
2019-02-12 15:00:00 17.9 13 Nordeste 24 Noroeste 0 -- -- 23
2019-02-12 14:00:00 17.9 9 Noroeste 27 Norte 0 -- -- 21
2019-02-12 13:00:00 16.9 12 Noroeste 27 Noroeste 0 -- -- 30
2019-02-12 12:00:00 15.1 14 Nordeste 30 Norte 0 -- -- 30
2019-02-12 11:00:00 14.5 14 Norte 33 Norte 0 -- -- 29
2019-02-12 10:00:00 12.4 4 Noroeste 14 Noroeste 0 -- -- 40
2019-02-12 09:00:00 9.7 2 Norte 23 Noroeste 0 -- -- 53
2019-02-12 08:00:00 8.8 15 Noroeste 33 Norte 0 -- -- 55
2019-02-12 07:00:00 8.5 8 Sudoeste 40 Norte 0 -- -- 55
2019-02-12 06:00:00 9.8 20 Norte 53 Norte 0 -- -- 49
2019-02-12 05:00:00 8.8 23 Noroeste 37 Noroeste 0 -- -- 60
2019-02-12 04:00:00 9.2 16 Noroeste 35 Noroeste 0 -- -- 59
2019-02-12 03:00:00 9.1 14 Noroeste 37 Noroeste 0 -- -- 61
2019-02-12 02:00:00 9.2 13 Noroeste 40 Norte 0 -- -- 62
2019-02-12 01:00:00 9.7 14 Noroeste 33 Norte 0 -- -- 60
2019-02-12 00:00:00 9.6 19 Noroeste 50 Noroeste 0 -- -- 59
2019-02-11 23:00:00 9.9 27 Norte 63 Norte 0 -- -- 57
2019-02-11 22:00:00 10.5 21 Norte 48 Norte 0 -- -- 52
2019-02-11 21:00:00 10.3 17 Norte 51 Norte 0 -- -- 53
2019-02-11 20:00:00 10.5 23 Norte 56 Norte 0 -- -- 50
2019-02-11 19:00:00 10.3 19 Norte 45 Norte 0 -- -- 58
2019-02-11 18:00:00 10.8 26 Norte 64 Norte 0 -- -- 55
2019-02-11 17:00:00 12.1 31 Norte 76 Noroeste 0 -- -- 47
2019-02-11 16:00:00 12.6 34 Norte 68 Noroeste 0 -- -- 42
2019-02-11 15:00:00 13.6 23 Norte 44 Norte 0 -- -- 45
2019-02-11 14:00:00 14.1 27 Norte 62 Norte 0 -- -- 41
2019-02-11 13:00:00 13.2 20 Norte 48 Noroeste 0 -- -- 48
2019-02-11 12:00:00 13.4 19 Norte 47 Norte 0 -- -- 43
2019-02-11 11:00:00 12.6 21 Norte 48 Norte 0 -- -- 46
2019-02-11 10:00:00 11.6 26 Norte 51 Norte 0 -- -- 48
2019-02-11 09:00:00 10.7 18 Norte 33 Norte 0 -- -- 51
2019-02-11 08:00:00 9.5 15 Norte 40 Norte 0 -- -- 56
2019-02-11 07:00:00 9.6 21 Nordeste 54 Norte 0 -- -- 56
2019-02-11 06:00:00 9.8 20 Norte 49 Norte 0 -- -- 52
2019-02-11 05:00:00 10.4 23 Norte 49 Nordeste 0 -- -- 44
2019-02-11 04:00:00 11.3 32 Norte 62 Norte 0 -- -- 37
2019-02-11 03:00:00 11.9 38 Norte 66 Norte 0 -- -- 30
2019-02-11 02:00:00 11.8 31 Norte 64 Norte 0 -- -- 31
2019-02-11 01:00:00 11.1 40 Norte 68 Norte 0 -- -- 44
2019-02-11 00:00:00 11 33 Norte 69 Norte 0 -- -- 49
2019-02-10 23:00:00 11.3 33 Norte 57 Norte 0 -- -- 51
2019-02-10 22:00:00 11.6 32 Norte 73 Norte 0 -- -- 51
2019-02-10 21:00:00 11.9 29 Norte 64 Norte 0 -- -- 51
2019-02-10 20:00:00 12 37 Norte 67 Norte 0 -- -- 53
2019-02-10 19:00:00 13.5 24 Norte 51 Norte 0 -- -- 55
2019-02-10 18:00:00 13.6 25 Norte 46 Norte 0 -- -- 57
2019-02-10 17:00:00 16 10 Nordeste 37 Noroeste 0 -- -- 54
2019-02-10 16:00:00 17 6 Sudoeste 15 Sur 0 -- -- 57
2019-02-10 15:00:00 17 3 Sudoeste 17 Sudoeste 0 -- -- 55
2019-02-10 14:00:00 15.2 9 Sur 18 Sudoeste 0 -- -- 62
2019-02-10 13:00:00 13.7 9 Sudoeste 16 Oeste 0 -- -- 69
2019-02-10 12:00:00 13 8 Norte 22 Nordeste 0 -- -- 69
2019-02-10 11:00:00 11.9 0 Calma 12 Nordeste 0 -- -- 70
2019-02-10 10:00:00 11.4 5 Nordeste 19 Nordeste 0 -- -- 75
2019-02-10 09:00:00 9.2 14 Nordeste 21 Nordeste 0 -- -- 77
2019-02-10 08:00:00 9.1 12 Nordeste 18 Nordeste 0 -- -- 77
2019-02-10 07:00:00 8 4 Nordeste 10 Nordeste 0 -- -- 79
2019-02-10 06:00:00 8 2 Norte 10 Nordeste 0 -- -- 81
2019-02-10 05:00:00 8.5 6 Nordeste 14 Nordeste 0 -- -- 79
2019-02-10 04:00:00 8 6 Nordeste 14 Nordeste 0 -- -- 84
2019-02-10 03:00:00 7.9 11 Nordeste 14 Nordeste 0 -- -- 86
2019-02-10 02:00:00 8 3 Nordeste 12 Nordeste 0 -- -- 87
2019-02-10 01:00:00 8 8 Nordeste 12 Este 0 -- -- 89
2019-02-10 00:00:00 7.4 8 Nordeste 12 Nordeste 0 -- -- 88
2019-02-09 23:00:00 7.8 3 Nordeste 9 Nordeste 0 -- -- 89
2019-02-09 22:00:00 7.9 4 Nordeste 11 Sudoeste 0 -- -- 92
2019-02-09 21:00:00 8.6 4 Este 15 Nordeste 0 -- -- 90
2019-02-09 20:00:00 9.2 5 Nordeste 9 Nordeste 0 -- -- 89
2019-02-09 19:00:00 10 0 Calma 15 Sur 0 -- -- 86
2019-02-09 18:00:00 12.8 9 Sur 15 Sur 0 -- -- 73
2019-02-09 17:00:00 15.8 8 Sur 16 Sur 0 -- -- 62
2019-02-09 16:00:00 16.9 12 Sur 22 Sudeste 0 -- -- 53
2019-02-09 15:00:00 17.9 13 Sur 21 Sur 0 -- -- 49
2019-02-09 14:00:00 17.7 6 Sudoeste 14 Sur 0 -- -- 45
2019-02-09 13:00:00 16.9 7 Sudoeste 12 Sudoeste 0 -- -- 45
2019-02-09 12:00:00 15.5 5 Sudoeste 10 Sur 0 -- -- 60
2019-02-09 11:00:00 14 4 Sudeste 6 Sur 0 -- -- 67
2019-02-09 10:00:00 10.6 0 Calma 7 Nordeste 0 -- -- 81
2019-02-09 09:00:00 6.3 3 Norte 7 Norte 0 -- -- 93
2019-02-09 08:00:00 5.3 0 Calma 7 Nordeste 0 -- -- 94
2019-02-09 07:00:00 5.8 2 Norte 8 Norte 0 -- -- 91
2019-02-09 06:00:00 5.8 0 Calma 12 Nordeste 0 -- -- 92
2019-02-09 05:00:00 6.5 2 Norte 8 Nordeste 0 -- -- 91
2019-02-09 04:00:00 7.4 7 Nordeste 15 Nordeste 0 -- -- 89
2019-02-09 03:00:00 8.1 7 Nordeste 16 Nordeste 0 -- -- 89
2019-02-09 02:00:00 8.6 12 Nordeste 19 Nordeste 0 -- -- 86
2019-02-09 01:00:00 8.7 6 Norte 23 Nordeste 0 -- -- 85
2019-02-09 00:00:00 9.2 13 Nordeste 23 Nordeste 0 -- -- 84
2019-02-08 23:00:00 8.6 15 Nordeste 20 Nordeste 0 -- -- 83
2019-02-08 22:00:00 7.6 7 Nordeste 15 Nordeste 0 -- -- 86
2019-02-08 21:00:00 7.9 4 Nordeste 15 Nordeste 0 -- -- 85
2019-02-08 20:00:00 7.9 4 Nordeste 8 Norte 0 -- -- 88
2019-02-08 19:00:00 8.7 3 Nordeste 8 Norte 0 -- -- 86
2019-02-08 18:00:00 12.7 0 Calma 5 Sur 0 -- -- 74
2019-02-08 17:00:00 13.8 3 Sur 10 Sur 0 -- -- 68
2019-02-08 16:00:00 13.9 7 Sur 17 Sur 0 -- -- 67
2019-02-08 15:00:00 14 9 Sur 19 Sur 0 -- -- 66
2019-02-08 14:00:00 14.6 10 Sur 17 Sudoeste 0 -- -- 63
2019-02-08 13:00:00 13.7 8 Sur 14 Sur 0 -- -- 63
2019-02-08 12:00:00 13.6 7 Sur 17 Sur 0 -- -- 61
2019-02-08 11:00:00 13.2 5 Sur 9 Sur 0 -- -- 59
2019-02-08 10:00:00 11.7 0 Calma 6 Nordeste 0 -- -- 64
2019-02-08 09:00:00 8.8 3 Nordeste 7 Nordeste 0 -- -- 79
2019-02-08 08:00:00 8.7 3 Nordeste 9 Nordeste 0 -- -- 77
2019-02-08 07:00:00 9.2 8 Nordeste 10 Nordeste 0 -- -- 74
2019-02-08 06:00:00 9.1 2 Nordeste 4 Nordeste 0 -- -- 77
2019-02-08 05:00:00 9.5 0 Calma 4 Este 0 -- -- 72
2019-02-08 04:00:00 10.1 2 Nordeste 9 Nordeste 0 -- -- 66
2019-02-08 03:00:00 11.1 2 Sudoeste 16 Oeste 0 -- -- 58
2019-02-08 02:00:00 11.7 6 Norte 30 Norte 0 -- -- 56
2019-02-08 01:00:00 11.7 16 Norte 40 Norte 0 -- -- 52
2019-02-08 00:00:00 11.6 22 Norte 48 Norte 0 -- -- 58
2019-02-07 23:00:00 12 29 Norte 58 Nordeste 0 -- -- 55
2019-02-07 22:00:00 12.2 23 Norte 56 Norte 0 -- -- 58
2019-02-07 21:00:00 12.3 26 Norte 61 Norte 0 -- -- 62
2019-02-07 20:00:00 12.9 30 Norte 56 Norte 0 -- -- 60
2019-02-07 19:00:00 14 20 Norte 42 Norte 0 -- -- 59
2019-02-07 18:00:00 14.3 19 Norte 44 Noroeste 0 -- -- 55
2019-02-07 17:00:00 13.3 6 Este 20 Nordeste 0 -- -- 68
2019-02-07 16:00:00 14.1 7 Sur 19 Sur 0 -- -- 71
2019-02-07 15:00:00 15.4 11 Sur 17 Sur 0 -- -- 66
2019-02-07 14:00:00 15.6 8 Sur 15 Sudoeste 0 -- -- 65
2019-02-07 13:00:00 14.2 8 Sur 15 Sur 0 -- -- 70
2019-02-07 12:00:00 12.6 7 Sur 13 Sur 0 -- -- 77
2019-02-07 11:00:00 10.8 6 Sudoeste 10 Sudoeste 0 -- -- 89
2019-02-07 10:00:00 9.3 2 Sur 6 Sur 0 -- -- 96
2019-02-07 09:00:00 6.2 0 Calma 5 Nordeste 0 -- -- 96
2019-02-07 08:00:00 4.9 0 Calma 8 Nordeste 0 -- -- 95
2019-02-07 07:00:00 5.1 2 Norte 12 Nordeste 0 -- -- 94
2019-02-07 06:00:00 6.4 3 Nordeste 15 Nordeste 0 -- -- 92
2019-02-07 05:00:00 6.7 3 Sudeste 17 Nordeste 0 -- -- 87
2019-02-07 04:00:00 6.3 2 Noroeste 16 Nordeste 0 -- -- 93
2019-02-07 03:00:00 5.8 3 Nordeste 8 Nordeste 0 -- -- 95
2019-02-07 02:00:00 5.6 0 Calma 7 Norte 0 -- -- 93
2019-02-07 01:00:00 6.2 3 Nordeste 11 Nordeste 0 -- -- 93
2019-02-07 00:00:00 6.3 3 Norte 8 Nordeste 0 -- -- 93
2019-02-06 23:00:00 6.9 3 Nordeste 12 Nordeste 0 -- -- 91
2019-02-06 22:00:00 7 4 Nordeste 9 Nordeste 0 -- -- 92
2019-02-06 21:00:00 7.5 5 Nordeste 10 Nordeste 0 -- -- 90
2019-02-06 20:00:00 8.2 5 Nordeste 9 Nordeste 0 -- -- 89
2019-02-06 19:00:00 9.4 3 Nordeste 5 Nordeste 0 -- -- 87
2019-02-06 18:00:00 12.3 2 Sur 11 Sur 0 -- -- 79
2019-02-06 17:00:00 14.1 9 Sur 16 Sur 0 -- -- 73
2019-02-06 16:00:00 15.5 11 Sur 15 Sur 0 -- -- 65
2019-02-06 15:00:00 16 10 Sur 18 Sudeste 0 -- -- 62
2019-02-06 14:00:00 16.2 10 Sur 19 Sur 0 -- -- 58
2019-02-06 13:00:00 16 6 Sur 15 Sur 0 -- -- 55
2019-02-06 12:00:00 14.1 8 Sur 17 Sur 0 -- -- 58
2019-02-06 11:00:00 12.6 10 Sur 19 Sur 0 -- -- 66
2019-02-06 10:00:00 10.6 4 Sur 9 Sur 0 -- -- 74
2019-02-06 09:00:00 7.3 2 Nordeste 13 Norte 0 -- -- 90
2019-02-06 08:00:00 5.1 4 Oeste 11 Norte 0 -- -- 93
2019-02-06 07:00:00 5.7 5 Este 13 Sudoeste 0 -- -- 93
2019-02-06 06:00:00 6.9 3 Sudeste 10 Oeste 0 -- -- 91
2019-02-06 05:00:00 6.9 6 Oeste 12 Nordeste 0 -- -- 93
2019-02-06 04:00:00 8 4 Sudoeste 12 Nordeste 0 -- -- 90
2019-02-06 03:00:00 8.8 3 Sudeste 11 Nordeste 0 -- -- 88
2019-02-06 02:00:00 9.4 4 Nordeste 9 Norte 0 -- -- 87
2019-02-06 01:00:00 9.9 3 Este 9 Sudoeste 0 -- -- 85
2019-02-06 00:00:00 11.8 5 Sur 18 Sudoeste 0 -- -- 79
2019-02-05 23:00:00 13.1 12 Sudoeste 26 Oeste 0 -- -- 73
2019-02-05 22:00:00 12.2 7 Sur 30 Norte 0 -- -- 75
2019-02-05 21:00:00 14.7 16 Noroeste 35 Noroeste 0 -- -- 66
2019-02-05 20:00:00 14.7 14 Noroeste 30 Noroeste 0 -- -- 65
2019-02-05 19:00:00 14.6 8 Noroeste 24 Noroeste 0 -- -- 66
2019-02-05 18:00:00 15.1 13 Norte 33 Norte 0 -- -- 65
2019-02-05 17:00:00 16 18 Norte 47 Norte 0 -- -- 62
2019-02-05 16:00:00 16.4 23 Norte 50 Norte 0 -- -- 63
2019-02-05 15:00:00 15.9 25 Norte 40 Norte 0 -- -- 65
2019-02-05 14:00:00 15.4 11 Norte 27 Norte 0 -- -- 70
2019-02-05 13:00:00 9.1 2 Sudoeste 10 Sudoeste 0.2 -- -- 84
2019-02-05 12:00:00 7.9 5 Sur 10 Sudeste 0 -- -- 84
2019-02-05 11:00:00 6.6 2 Nordeste 7 Norte 0 -- -- 91
2019-02-05 10:00:00 6.1 0 Calma 4 Este 0 -- -- 93
2019-02-05 09:00:00 5.8 2 Norte 6 Nordeste 0 -- -- 93
2019-02-05 08:00:00 5.7 0 Calma 4 Sudoeste 0 -- -- 93
2019-02-05 07:00:00 5.5 3 Norte 11 Nordeste 0 -- -- 93
2019-02-05 06:00:00 5.4 0 Calma 8 Noroeste 0.2 -- -- 92
2019-02-05 05:00:00 5.3 4 Nordeste 17 Nordeste 0.6 -- -- 89
2019-02-05 04:00:00 5.2 13 Nordeste 19 Nordeste 0.6 -- -- 87
2019-02-05 03:00:00 5.4 10 Nordeste 16 Nordeste 0.4 -- -- 84
2019-02-05 02:00:00 6.2 11 Nordeste 17 Nordeste 0 -- -- 68
2019-02-05 01:00:00 6 9 Nordeste 18 Nordeste 0 -- -- 69
2019-02-05 00:00:00 5.7 9 Nordeste 14 Nordeste 0 -- -- 71
2019-02-04 23:00:00 5.4 6 Nordeste 12 Nordeste 0 -- -- 52
2019-02-04 22:00:00 4.3 5 Nordeste 13 Nordeste 0 -- -- 55
2019-02-04 21:00:00 4.3 4 Nordeste 11 Nordeste 0 -- -- 54
2019-02-04 20:00:00 4.9 6 Nordeste 10 Nordeste 0 -- -- 49
2019-02-04 19:00:00 5.4 5 Norte 11 Norte 0 -- -- 45
2019-02-04 18:00:00 9.1 8 Nordeste 17 Nordeste 0 -- -- 36
2019-02-04 17:00:00 13.1 7 Nordeste 15 Nordeste 0 -- -- 26
2019-02-04 16:00:00 14.3 7 Nordeste 25 Sudeste 0 -- -- 24
2019-02-04 15:00:00 14.4 8 Este 25 Nordeste 0 -- -- 21
2019-02-04 14:00:00 13.8 13 Nordeste 33 Nordeste 0 -- -- 19
2019-02-04 13:00:00 13.3 17 Nordeste 43 Norte 0 -- -- 17
2019-02-04 12:00:00 13.2 18 Nordeste 37 Oeste 0 -- -- 15
2019-02-04 11:00:00 12.6 13 Oeste 34 Oeste 0 -- -- 15
2019-02-04 10:00:00 11.3 11 Sudoeste 27 Sudoeste 0 -- -- 13
2019-02-04 09:00:00 7.8 13 Oeste 29 Noroeste 0 -- -- 21
2019-02-04 08:00:00 7.2 11 Sudoeste 60 Sur 0 -- -- 23
2019-02-04 07:00:00 8.6 24 Norte 73 Norte 0 -- -- 18
2019-02-04 06:00:00 8 30 Norte 82 Norte 0 -- -- 21
2019-02-04 05:00:00 6.8 43 Norte 86 Norte 0 -- -- 31
2019-02-04 04:00:00 6.6 50 Norte 111 Norte 0 -- -- 36
2019-02-04 03:00:00 6.2 44 Norte 112 Norte 0 -- -- 40
2019-02-04 02:00:00 6.4 59 Norte 119 Norte 0 -- -- 40
2019-02-04 01:00:00 5.9 42 Norte 121 Norte 0 -- -- 46
2019-02-04 00:00:00 6 51 Norte 107 Norte 0 -- -- 47
2019-02-03 23:00:00 6.2 51 Norte 113 Norte 0 -- -- 47
2019-02-03 22:00:00 6.4 45 Norte 86 Noroeste 0 -- -- 46
2019-02-03 21:00:00 6.4 15 Oeste 51 Noroeste 0 -- -- 45
2019-02-03 20:00:00 6.3 15 Noroeste 54 Noroeste 0 -- -- 46
2019-02-03 19:00:00 6.3 27 Noroeste 70 Noroeste 0 -- -- 45
2019-02-03 18:00:00 6.6 26 Noroeste 80 Norte 0 -- -- 44
2019-02-03 17:00:00 7.1 36 Norte 86 Noroeste 0 -- -- 42
2019-02-03 16:00:00 7.8 37 Norte 82 Norte 0 -- -- 40
2019-02-03 15:00:00 7.2 42 Norte 104 Norte 0 -- -- 41
2019-02-03 14:00:00 7.6 58 Norte 109 Norte 0 -- -- 39
2019-02-03 13:00:00 7.8 45 Norte 103 Norte 0 -- -- 39
2019-02-03 12:00:00 6.9 41 Norte 97 Norte 0 -- -- 42
2019-02-03 11:00:00 6 40 Norte 95 Norte 0 -- -- 42
2019-02-03 10:00:00 5.6 35 Noroeste 85 Noroeste 0 -- -- 44
2019-02-03 09:00:00 5.2 37 Norte 91 Noroeste 0 -- -- 43
2019-02-03 08:00:00 4.9 48 Norte 91 Norte 0 -- -- 43
2019-02-03 07:00:00 4.8 41 Norte 102 Noroeste 0 -- -- 46
2019-02-03 06:00:00 5.2 49 Norte 98 Noroeste 0 -- -- 41
2019-02-03 05:00:00 5.3 51 Norte 101 Norte 0 -- -- 48
2019-02-03 04:00:00 5.3 48 Norte 106 Norte 0 -- -- 51
2019-02-03 03:00:00 5.5 56 Norte 102 Norte 0 -- -- 52
2019-02-03 02:00:00 5.6 58 Norte 110 Norte 0 -- -- 52
2019-02-03 01:00:00 6.4 62 Norte 105 Norte 0 -- -- 44
2019-02-03 00:00:00 6.3 51 Norte 102 Norte 0 -- -- 45
2019-02-02 23:00:00 6.4 52 Norte 101 Noroeste 0 -- -- 49
2019-02-02 22:00:00 6.5 39 Norte 90 Norte 0 -- -- 52
2019-02-02 21:00:00 6.9 39 Norte 78 Noroeste 0 -- -- 54
2019-02-02 20:00:00 7.4 32 Noroeste 78 Norte 0 -- -- 51
2019-02-02 19:00:00 7.4 32 Noroeste 86 Noroeste 0 -- -- 53
2019-02-02 18:00:00 7.7 46 Norte 95 Noroeste 0 -- -- 51
2019-02-02 17:00:00 7.9 42 Noroeste 80 Noroeste 0 -- -- 54
2019-02-02 16:00:00 8.6 30 Noroeste 78 Oeste 0 -- -- 59
2019-02-02 15:00:00 8.9 24 Noroeste 72 Noroeste 0 -- -- 60
2019-02-02 14:00:00 8.8 27 Noroeste 57 Noroeste 0 -- -- 60
2019-02-02 13:00:00 8.8 26 Norte 51 Noroeste 0 -- -- 62
2019-02-02 12:00:00 7.8 10 Noroeste 18 Norte 0 -- -- 77
2019-02-02 11:00:00 6.1 0 Calma 8 Oeste 0.2 -- -- 91
2019-02-02 10:00:00 5.9 5 Nordeste 11 Nordeste 0.2 -- -- 90
2019-02-02 09:00:00 5.6 0 Calma 6 Nordeste 0 -- -- 87
2019-02-02 08:00:00 6.1 2 Sur 13 Oeste 0 -- -- 82
2019-02-02 07:00:00 7.2 6 Oeste 18 Oeste 0 -- -- 72
2019-02-02 06:00:00 7.3 10 Oeste 51 Norte 0 -- -- 73
2019-02-02 05:00:00 8.4 30 Norte 65 Norte 0 -- -- 62
2019-02-02 04:00:00 8 31 Norte 55 Noroeste 0 -- -- 65
2019-02-02 03:00:00 8.5 4 Noroeste 27 Nordeste 0 -- -- 69
2019-02-02 02:00:00 9.5 18 Nordeste 33 Norte 0 -- -- 69
2019-02-02 01:00:00 9.8 2 Sur 29 Norte 0 -- -- 62
2019-02-02 00:00:00 5.2 9 Nordeste 14 Nordeste 0 -- -- 81
2019-02-01 23:00:00 5.3 5 Nordeste 15 Nordeste 0 -- -- 79
2019-02-01 22:00:00 5.6 5 Nordeste 12 Nordeste 0 -- -- 80
2019-02-01 21:00:00 6.1 3 Norte 18 Nordeste 0 -- -- 80
2019-02-01 20:00:00 7.4 5 Norte 17 Nordeste 0 -- -- 77
2019-02-01 19:00:00 9.3 14 Nordeste 21 Nordeste 0 -- -- 74
2019-02-01 18:00:00 12.1 8 Este 15 Nordeste 0 -- -- 65
2019-02-01 17:00:00 16.3 8 Sur 19 Noroeste 0 -- -- 48
2019-02-01 16:00:00 18 9 Oeste 31 Oeste 0 -- -- 45
2019-02-01 15:00:00 18.1 9 Sudoeste 17 Sudoeste -- -- -- 47
2019-02-01 14:00:00 15.5 4 Sur 12 Sur 0 -- -- 63
2019-02-01 13:00:00 13 6 Sur 12 Sudeste 0 -- -- 73
2019-02-01 12:00:00 10.8 3 Este 8 Sudeste 0 -- -- 82
2019-02-01 11:00:00 9.8 0 Calma 9 Nordeste 0 -- -- 84
2019-02-01 10:00:00 9.2 5 Nordeste 11 Nordeste 0 -- -- 85
2019-02-01 09:00:00 9.2 8 Nordeste 16 Norte 0 -- -- 86
2019-02-01 08:00:00 9.1 9 Nordeste 14 Nordeste 0 -- -- 87
2019-02-01 07:00:00 8.3 2 Sur 5 Norte 0 -- -- 88
2019-02-01 06:00:00 8.9 4 Sudeste 17 Nordeste 0 -- -- 85
2019-02-01 05:00:00 8.9 8 Nordeste 18 Nordeste 0 -- -- 85
2019-02-01 04:00:00 9.3 10 Nordeste 26 Nordeste 0 -- -- 82
2019-02-01 03:00:00 9 14 Nordeste 26 Nordeste 0 -- -- 83
2019-02-01 02:00:00 9.5 18 Nordeste 30 Nordeste 0 -- -- 81
2019-02-01 01:00:00 8.6 6 Norte 12 Nordeste 0 -- -- 83
2019-02-01 00:00:00 7.4 7 Nordeste 10 Nordeste 0 -- -- 86
2019-01-31 23:00:00 6.6 3 Este 10 Nordeste 0 -- -- 87
2019-01-31 22:00:00 6 5 Norte 10 Norte 0 -- -- 85
2019-01-31 21:00:00 6.2 4 Nordeste 10 Nordeste 0 -- -- 84
2019-01-31 20:00:00 6.5 2 Nordeste 9 Norte 0 -- -- 83
2019-01-31 19:00:00 8.2 2 Norte 7 Nordeste 0 -- -- 79
2019-01-31 18:00:00 10 0 Calma 7 Sur 0 -- -- 69
2019-01-31 17:00:00 11.2 0 Calma 12 Sudeste 0 -- -- 63
2019-01-31 16:00:00 11.8 7 Sur 20 Sudeste 0 -- -- 60
2019-01-31 15:00:00 12.5 9 Sur 14 Sudoeste 0 -- -- 53
2019-01-31 14:00:00 12.9 4 Sudeste 15 Sur 0 -- -- 53
2019-01-31 13:00:00 12.5 5 Sudoeste 10 Sudoeste 0 -- -- 49
2019-01-31 12:00:00 11.2 3 Sudeste 11 Sudoeste 0 -- -- 55
2019-01-31 11:00:00 9.6 5 Sudoeste 9 Sur 0 -- -- 62
2019-01-31 10:00:00 8.3 4 Sudoeste 7 Norte 0 -- -- 69
2019-01-31 09:00:00 5.1 6 Nordeste 13 Nordeste 0 -- -- 83
2019-01-31 08:00:00 3.4 4 Nordeste 6 Este 0 -- -- 88
2019-01-31 07:00:00 3.4 3 Oeste 9 Nordeste 0 -- -- 89
2019-01-31 06:00:00 3.1 2 Nordeste 9 Norte 0 -- -- 89
2019-01-31 05:00:00 2.8 5 Nordeste 8 Nordeste 0 -- -- 92
2019-01-31 04:00:00 2.3 3 Norte 8 Norte 0 -- -- 93
2019-01-31 03:00:00 3 5 Nordeste 11 Nordeste 0 -- -- 94
2019-01-31 02:00:00 2.9 0 Calma 7 Nordeste 0 -- -- 92
2019-01-31 01:00:00 3.4 2 Norte 9 Nordeste 0 -- -- 93
2019-01-31 00:00:00 3.3 5 Nordeste 13 Nordeste 0 -- -- 91
2019-01-30 23:00:00 4.4 6 Nordeste 13 Nordeste 0 -- -- 89
2019-01-30 22:00:00 4 3 Nordeste 9 Nordeste 0 -- -- 88
2019-01-30 21:00:00 4.5 4 Norte 9 Nordeste 0 -- -- 86
2019-01-30 20:00:00 5.3 6 Norte 10 Nordeste 0 -- -- 83
2019-01-30 19:00:00 6.9 5 Nordeste 8 Este 0 -- -- 77
2019-01-30 18:00:00 8.3 3 Este 20 Sur 0 -- -- 68
2019-01-30 17:00:00 9.4 10 Sur 27 Sudeste 0 -- -- 59
2019-01-30 16:00:00 11.7 13 Sur 23 Sudoeste 0 -- -- 46
2019-01-30 15:00:00 12.7 9 Sudoeste 24 Norte 0 -- -- 41
2019-01-30 14:00:00 12 15 Noroeste 39 Nordeste 0 -- -- 40
2019-01-30 13:00:00 11.6 20 Norte 40 Norte 0 -- -- 43
2019-01-30 12:00:00 10.8 19 Noroeste 40 Noroeste 0 -- -- 44
2019-01-30 11:00:00 10.2 21 Norte 42 Noroeste 0 -- -- 45
2019-01-30 10:00:00 9 16 Noroeste 41 Norte 0 -- -- 48
2019-01-30 09:00:00 7.4 23 Norte 53 Norte 0 -- -- 53
2019-01-30 08:00:00 6.2 18 Noroeste 41 Norte 0 -- -- 57
2019-01-30 07:00:00 5.7 19 Norte 59 Norte 0 -- -- 63
2019-01-30 06:00:00 5.8 33 Norte 84 Noroeste 0 -- -- 65
2019-01-30 05:00:00 6.8 30 Norte 67 Noroeste 0 -- -- 55
2019-01-30 04:00:00 8.4 38 Norte 69 Noroeste 0 -- -- 46
2019-01-30 03:00:00 8.2 21 Norte 47 Noroeste 0 -- -- 48
2019-01-30 02:00:00 9.1 25 Norte 58 Noroeste 0 -- -- 49
2019-01-30 01:00:00 2.7 6 Sudoeste 21 Nordeste 0 -- -- 86
2019-01-30 00:00:00 3.5 12 Nordeste 24 Nordeste 0 -- -- 84
2019-01-29 23:00:00 2.9 4 Nordeste 14 Nordeste 0 -- -- 87
2019-01-29 22:00:00 3.3 13 Nordeste 17 Nordeste 0 -- -- 85
2019-01-29 21:00:00 4.1 8 Nordeste 14 Nordeste 0 -- -- 85
2019-01-29 20:00:00 5.9 9 Nordeste 13 Nordeste 0 -- -- 80
2019-01-29 19:00:00 6.5 7 Nordeste 10 Nordeste 0 -- -- 81
2019-01-29 18:00:00 6.9 6 Nordeste 8 Nordeste 0 -- -- 82
2019-01-29 17:00:00 7.8 2 Sudeste 7 Sudoeste 0 -- -- 74
2019-01-29 16:00:00 7.8 3 Sur 10 Sur 0 -- -- 72
2019-01-29 15:00:00 7.9 4 Sudoeste 13 Sur 0 -- -- 67
2019-01-29 14:00:00 8.2 5 Sudoeste 14 Sudoeste 0 -- -- 67
2019-01-29 13:00:00 8.4 6 Sudoeste 10 Sudoeste 0 -- -- 71
2019-01-29 12:00:00 9 2 Sur 8 Este 0 -- -- 63
2019-01-29 11:00:00 8.7 4 Este 11 Nordeste 0 -- -- 64
2019-01-29 10:00:00 8.1 7 Nordeste 17 Norte 0 -- -- 66
2019-01-29 09:00:00 6.8 12 Norte 29 Norte 0 -- -- 71
2019-01-29 08:00:00 6.8 14 Norte 29 Norte 0 -- -- 68
2019-01-29 07:00:00 7 14 Nordeste 35 Nordeste 0 -- -- 65
2019-01-29 06:00:00 7.1 15 Norte 33 Noroeste 0 -- -- 62
2019-01-29 05:00:00 7.1 8 Noroeste 42 Noroeste 0 -- -- 63
2019-01-29 04:00:00 7 8 Norte 81 Norte 0 -- -- 61
2019-01-29 03:00:00 7 45 Norte 94 Norte 0 -- -- 63
2019-01-29 02:00:00 6 50 Norte 78 Norte 0.2 -- -- 72
2019-01-29 01:00:00 4.9 26 Norte 41 Norte 0.4 -- -- 83
2019-01-29 00:00:00 5.6 26 Norte 55 Nordeste 0.6 -- -- 73
2019-01-28 23:00:00 6.7 22 Norte 49 Norte 0 -- -- 71
2019-01-28 22:00:00 6.2 22 Norte 54 Norte 0 -- -- 78
2019-01-28 21:00:00 7.4 35 Norte 63 Norte 0.2 -- -- 69
2019-01-28 20:00:00 7.1 17 Norte 42 Norte 0.2 -- -- 75
2019-01-28 19:00:00 7.3 24 Norte 50 Norte 0 -- -- 76
2019-01-28 18:00:00 7.9 16 Norte 51 Norte 0 -- -- 67
2019-01-28 17:00:00 8.8 21 Norte 51 Norte 0 -- -- 63
2019-01-28 16:00:00 10.1 21 Norte 45 Norte 0 -- -- 64
2019-01-28 15:00:00 9.3 18 Norte 42 Norte 0.2 -- -- 75
2019-01-28 14:00:00 7.8 19 Norte 38 Noroeste 2 -- -- 83
2019-01-28 13:00:00 8.2 10 Noroeste 27 Noroeste 2.6 -- -- 85
2019-01-28 12:00:00 7.3 9 Oeste 21 Oeste 0.4 -- -- 81
2019-01-28 11:00:00 5.3 5 Oeste 16 Oeste 0.8 -- -- 89
2019-01-28 10:00:00 5.5 2 Sur 11 Nordeste 0 -- -- 75
2019-01-28 09:00:00 4.8 4 Nordeste 8 Nordeste 0 -- -- 73
2019-01-28 08:00:00 3.2 3 Nordeste 9 Este 0 -- -- 79
2019-01-28 07:00:00 2.5 2 Nordeste 13 Este 0 -- -- 78
2019-01-28 06:00:00 5.1 6 Sudeste 27 Noroeste 0 -- -- 68
2019-01-28 05:00:00 5.6 9 Oeste 44 Noroeste 0 -- -- 70
2019-01-28 04:00:00 7.1 21 Norte 49 Norte 0 -- -- 60
2019-01-28 03:00:00 8.2 24 Norte 54 Norte 0 -- -- 49
2019-01-28 02:00:00 8.3 14 Norte 54 Noroeste 0 -- -- 48
2019-01-28 01:00:00 8.1 23 Norte 53 Norte 0 -- -- 49
2019-01-28 00:00:00 7.8 9 Sur 42 Noroeste 0 -- -- 55
2019-01-27 23:00:00 8.3 22 Norte 77 Norte 0 -- -- 47
2019-01-27 22:00:00 8.6 36 Norte 74 Noroeste 0 -- -- 49
2019-01-27 21:00:00 8.8 41 Noroeste 70 Noroeste 0 -- -- 46
2019-01-27 20:00:00 7.9 29 Norte 52 Norte 0 -- -- 54
2019-01-27 19:00:00 9 28 Norte 68 Norte 0 -- -- 47
2019-01-27 18:00:00 9.2 34 Norte 62 Norte 0 -- -- 51
2019-01-27 17:00:00 11.7 28 Norte 76 Norte 0 -- -- 39
2019-01-27 16:00:00 14.8 23 Norte 60 Norte 0 -- -- 30
2019-01-27 15:00:00 14 27 Norte 57 Norte 0 -- -- 38
2019-01-27 14:00:00 13 19 Norte 35 Nordeste 0 -- -- 46
2019-01-27 13:00:00 13.7 3 Sur 18 Sudoeste 0 -- -- 64
2019-01-27 12:00:00 12.8 9 Sudoeste 15 Sudoeste 0 -- -- 70
2019-01-27 11:00:00 11.4 5 Noroeste 9 Nordeste 0 -- -- 74
2019-01-27 10:00:00 9.5 4 Nordeste 9 Nordeste 0 -- -- 85
2019-01-27 09:00:00 7.2 3 Nordeste 12 Nordeste 0 -- -- 94
2019-01-27 08:00:00 5.1 5 Norte 7 Norte 0 -- -- 94
2019-01-27 07:00:00 5.8 2 Nordeste 8 Nordeste 0 -- -- 91
2019-01-27 06:00:00 5.9 3 Nordeste 8 Nordeste 0 -- -- 93
2019-01-27 05:00:00 5.1 4 Nordeste 10 Nordeste 0 -- -- 92
2019-01-27 04:00:00 5.2 0 Calma 14 Nordeste 0 -- -- 91
2019-01-27 03:00:00 5.2 5 Nordeste 10 Nordeste 0 -- -- 91
2019-01-27 02:00:00 5.4 4 Norte 8 Norte 0 -- -- 91
2019-01-27 01:00:00 6.2 0 Calma 12 Nordeste 0 -- -- 89
2019-01-27 00:00:00 7 5 Nordeste 18 Nordeste 0 -- -- 84
2019-01-26 23:00:00 7.1 14 Nordeste 22 Nordeste 0 -- -- 85
2019-01-26 22:00:00 6.6 9 Nordeste 17 Nordeste 0 -- -- 85
2019-01-26 21:00:00 6.3 4 Nordeste 13 Nordeste 0 -- -- 87
2019-01-26 20:00:00 7.2 9 Nordeste 15 Nordeste 0 -- -- 83
2019-01-26 19:00:00 7.9 4 Nordeste 10 Nordeste 0 -- -- 83
2019-01-26 18:00:00 11.1 0 Calma 23 Sur 0 -- -- 75
2019-01-26 17:00:00 13.4 12 Sur 28 Sur 0 -- -- 62
2019-01-26 16:00:00 16.3 10 Sur 27 Sudoeste 0 -- -- 47
2019-01-26 15:00:00 17.2 11 Oeste 24 Oeste 0 -- -- 47
2019-01-26 14:00:00 17.6 7 Oeste 19 Sur 0 -- -- 44
2019-01-26 13:00:00 16.7 9 Sudeste 23 Sur 0 -- -- 47
2019-01-26 12:00:00 15.6 11 Sur 37 Sudeste 0 -- -- 50
2019-01-26 11:00:00 13.6 13 Sudeste 68 Norte 0 -- -- 57
2019-01-26 10:00:00 12.6 33 Norte 65 Norte 0 -- -- 59
2019-01-26 09:00:00 11.7 37 Norte 75 Norte 0 -- -- 63
2019-01-26 08:00:00 11 31 Norte 46 Norte 0 -- -- 67
2019-01-26 07:00:00 11.2 20 Nordeste 29 Norte 0 -- -- 64
2019-01-26 06:00:00 11.2 11 Noroeste 36 Oeste 0 -- -- 64
2019-01-26 05:00:00 11.4 17 Oeste 36 Noroeste 0 -- -- 64
2019-01-26 04:00:00 11.5 23 Noroeste 44 Oeste 0 -- -- 63
2019-01-26 03:00:00 11.3 13 Noroeste 68 Nordeste 0 -- -- 63
2019-01-26 02:00:00 11.4 24 Norte 104 Norte 0 -- -- 61
2019-01-26 01:00:00 11.4 55 Norte 102 Nordeste 0 -- -- 61
2019-01-26 00:00:00 12.1 51 Norte 101 Norte 0 -- -- 58
2019-01-25 23:00:00 12 44 Norte 101 Norte 0 -- -- 58
2019-01-25 22:00:00 12.5 48 Norte 106 Norte 0 -- -- 56
2019-01-25 21:00:00 13.3 56 Norte 104 Norte 0 -- -- 52
2019-01-25 20:00:00 13.4 55 Norte 97 Norte 0 -- -- 49
2019-01-25 19:00:00 12.7 49 Norte 94 Norte 0 -- -- 51
2019-01-25 18:00:00 13.2 59 Norte 111 Norte 0 -- -- 50
2019-01-25 17:00:00 11.9 36 Norte 83 Norte 0 -- -- 59
2019-01-25 16:00:00 12.6 40 Norte 78 Norte 0 -- -- 58
2019-01-25 15:00:00 12.9 53 Norte 91 Norte 0 -- -- 56
2019-01-25 14:00:00 13.7 48 Norte 94 Norte 0 -- -- 53
2019-01-25 13:00:00 12.6 48 Norte 89 Nordeste 0 -- -- 54
2019-01-25 12:00:00 10.3 46 Nordeste 75 Nordeste 0 -- -- 60
2019-01-25 11:00:00 10.8 39 Norte 82 Nordeste 0 -- -- 54
2019-01-25 10:00:00 9.3 42 Norte 76 Norte 0 -- -- 56
2019-01-25 09:00:00 8.8 49 Norte 88 Norte 0 -- -- 54
2019-01-25 08:00:00 7.8 42 Norte 78 Noroeste 0 -- -- 53
2019-01-25 07:00:00 7.6 43 Norte 90 Norte 0 -- -- 48
2019-01-25 06:00:00 7.1 50 Norte 87 Norte 0 -- -- 42
2019-01-25 05:00:00 7.1 52 Norte 96 Norte 0 -- -- 35
2019-01-25 04:00:00 7 51 Norte 87 Norte 0 -- -- 32
2019-01-25 03:00:00 6.7 47 Norte 89 Norte 0 -- -- 31
2019-01-25 02:00:00 6.1 52 Norte 95 Norte 0 -- -- 38
2019-01-25 01:00:00 5.8 48 Norte 95 Norte 0 -- -- 42
2019-01-25 00:00:00 5.4 50 Norte 99 Norte 0 -- -- 48
2019-01-24 23:00:00 5.4 53 Norte 102 Noroeste 0 -- -- 48
2019-01-24 22:00:00 5.6 49 Norte 95 Norte 0 -- -- 47
2019-01-24 21:00:00 5.7 52 Norte 95 Norte 0 -- -- 46
2019-01-24 20:00:00 6 59 Norte 103 Norte 0 -- -- 41
2019-01-24 19:00:00 6 46 Norte 105 Norte 0 -- -- 40
2019-01-24 18:00:00 6.4 45 Norte 86 Noroeste 0 -- -- 39
2019-01-24 17:00:00 7.4 33 Norte 81 Noroeste 0 -- -- 38
2019-01-24 16:00:00 8.3 35 Norte 89 Norte 0 -- -- 36
2019-01-24 15:00:00 8.6 41 Norte 99 Norte 0 -- -- 33
2019-01-24 14:00:00 8.2 46 Norte 102 Norte 0 -- -- 36
2019-01-24 13:00:00 7.9 44 Norte 96 Norte 0 -- -- 38
2019-01-24 12:00:00 7.1 40 Norte 93 Norte 0 -- -- 40
2019-01-24 11:00:00 6.2 39 Norte 97 Norte 0 -- -- 43
2019-01-24 10:00:00 4.9 36 Norte 100 Norte 0 -- -- 48
2019-01-24 09:00:00 4.1 48 Norte 99 Norte 0 -- -- 48
2019-01-24 08:00:00 3.4 53 Norte 91 Norte 0 -- -- 53
2019-01-24 07:00:00 3.1 48 Norte 89 Norte 0 -- -- 57
2019-01-24 06:00:00 3.1 45 Norte 101 Norte 0 -- -- 57
2019-01-24 05:00:00 3.3 48 Norte 88 Norte 0 -- -- 59
2019-01-24 04:00:00 3.7 37 Norte 76 Norte 0 -- -- 61
2019-01-24 03:00:00 3.8 29 Norte 62 Norte 0 -- -- 65
2019-01-24 02:00:00 4.4 31 Norte 68 Noroeste 0 -- -- 58
2019-01-24 01:00:00 4.6 35 Norte 63 Norte 0 -- -- 56
2019-01-24 00:00:00 4.6 31 Norte 64 Noroeste 0 -- -- 58
2019-01-23 23:00:00 4.7 31 Norte 59 Noroeste 0 -- -- 61
2019-01-23 22:00:00 4.5 19 Norte 61 Norte 0 -- -- 66
2019-01-23 21:00:00 4.2 29 Norte 68 Noroeste 0 -- -- 69
2019-01-23 20:00:00 4.3 33 Noroeste 60 Norte 0 -- -- 72
2019-01-23 19:00:00 3.9 26 Norte 53 Norte 1.2 -- -- 80
2019-01-23 18:00:00 5 23 Norte 67 Norte 0 -- -- 71
2019-01-23 17:00:00 4.5 37 Norte 67 Norte 2.6 -- -- 74
2019-01-23 16:00:00 7.1 37 Noroeste 63 Norte 0.2 -- -- 69
2019-01-23 15:00:00 7.7 38 Noroeste 64 Noroeste 0.2 -- -- 65
2019-01-23 14:00:00 7.7 28 Norte 45 Norte 0.2 -- -- 72
2019-01-23 13:00:00 6.3 8 Noroeste 15 Noroeste 0.2 -- -- 82
2019-01-23 12:00:00 5.2 2 Noroeste 16 Norte 0.8 -- -- 85
2019-01-23 11:00:00 4.9 6 Norte 14 Noroeste 1.2 -- -- 87
2019-01-23 10:00:00 4.5 4 Nordeste 10 Norte 0.2 -- -- 79
2019-01-23 09:00:00 4.7 5 Sur 15 Nordeste 0 -- -- 68
2019-01-23 08:00:00 4.5 10 Nordeste 15 Nordeste 0 -- -- 67
2019-01-23 07:00:00 3.2 3 Norte 6 Norte 0 -- -- 76
2019-01-23 06:00:00 4 2 Este 6 Nordeste 0 -- -- 72
2019-01-23 05:00:00 4.2 0 Calma 6 Este 0 -- -- 72
2019-01-23 04:00:00 4.3 2 Nordeste 5 Noroeste 0 -- -- 71
2019-01-23 03:00:00 5.2 2 Nordeste 12 Sur 0 -- -- 64
2019-01-23 02:00:00 6.7 2 Nordeste 21 Noroeste 0 -- -- 54
2019-01-23 01:00:00 6.3 6 Norte 16 Norte 0 -- -- 56
2019-01-23 00:00:00 7.6 12 Norte 35 Norte 0 -- -- 50
2019-01-22 23:00:00 8.2 19 Norte 35 Norte 0 -- -- 48
2019-01-22 22:00:00 8.4 19 Norte 50 Noroeste 0 -- -- 43
2019-01-22 21:00:00 8.7 20 Noroeste 49 Noroeste 0 -- -- 40
2019-01-22 20:00:00 8.2 6 Norte 28 Noroeste 0 -- -- 55
2019-01-22 19:00:00 7.6 13 Norte 23 Nordeste 0 -- -- 58
2019-01-22 18:00:00 8.2 11 Nordeste 15 Nordeste 0 -- -- 59
2019-01-22 17:00:00 9.5 2 Nordeste 6 Norte 0 -- -- 57
2019-01-22 16:00:00 10.4 3 Noroeste 8 Nordeste 0 -- -- 48
2019-01-22 15:00:00 9 2 Nordeste 4 Noroeste 0 -- -- 52
2019-01-22 14:00:00 8.5 3 Nordeste 6 Este 0 -- -- 51
2019-01-22 13:00:00 7.9 3 Sur 12 Sur 0 -- -- 55
2019-01-22 12:00:00 8.9 6 Sudoeste 10 Sudoeste 0 -- -- 49
2019-01-22 11:00:00 6.7 4 Sur 9 Sur 0 -- -- 54
2019-01-22 10:00:00 3.6 0 Calma 10 Norte 0 -- -- 60
2019-01-22 09:00:00 -0.2 4 Sudeste 13 Sur 0 -- -- 73
2019-01-22 08:00:00 -0.8 6 Norte 13 Norte 0 -- -- 70
2019-01-22 07:00:00 -1.3 3 Este 12 Nordeste 0 -- -- 78
2019-01-22 06:00:00 1.5 3 Sudoeste 18 Oeste 0 -- -- 68
2019-01-22 05:00:00 -0.2 5 Sur 10 Norte 0 -- -- 75
2019-01-22 04:00:00 1.9 2 Oeste 15 Norte 0 -- -- 66
2019-01-22 03:00:00 4.5 11 Norte 39 Norte 0 -- -- 58
2019-01-22 02:00:00 5.6 22 Norte 53 Noroeste 0 -- -- 51
2019-01-22 01:00:00 5.4 16 Norte 53 Noroeste 0 -- -- 54
2019-01-22 00:00:00 5.7 21 Noroeste 45 Noroeste 0 -- -- 53
2019-01-21 23:00:00 6 23 Noroeste 52 Noroeste 0 -- -- 51
2019-01-21 22:00:00 6 20 Noroeste 49 Nordeste 0 -- -- 58
2019-01-21 21:00:00 6.5 21 Norte 63 Norte 0 -- -- 55
2019-01-21 20:00:00 7 29 Norte 57 Noroeste 0 -- -- 55
2019-01-21 19:00:00 7.1 22 Norte 60 Norte 0 -- -- 58
2019-01-21 18:00:00 7.4 32 Norte 62 Norte 0 -- -- 57
2019-01-21 17:00:00 8.5 31 Norte 67 Norte 0 -- -- 52
2019-01-21 16:00:00 9.3 37 Norte 67 Norte 0 -- -- 52
2019-01-21 15:00:00 10.1 33 Norte 79 Noroeste 0 -- -- 51
2019-01-21 14:00:00 10.2 36 Norte 62 Noroeste 0 -- -- 51
2019-01-21 13:00:00 9.1 32 Norte 71 Norte 0 -- -- 56
2019-01-21 12:00:00 9.4 33 Norte 62 Norte 0 -- -- 56
2019-01-21 11:00:00 9.8 23 Norte 46 Nordeste 0 -- -- 56
2019-01-21 10:00:00 9 27 Norte 57 Noroeste 0 -- -- 58
2019-01-21 09:00:00 8.3 27 Norte 49 Norte 0 -- -- 58
2019-01-21 08:00:00 7.7 22 Norte 46 Norte 0 -- -- 63
2019-01-21 07:00:00 7.8 23 Norte 48 Norte 0 -- -- 63
2019-01-21 06:00:00 8.1 23 Norte 47 Noroeste 0 -- -- 61
2019-01-21 05:00:00 8.2 21 Norte 42 Norte 0 -- -- 65
2019-01-21 04:00:00 8.4 23 Norte 47 Nordeste 0 -- -- 65
2019-01-21 03:00:00 8.6 23 Norte 44 Norte 0 -- -- 64
2019-01-21 02:00:00 8.5 19 Norte 41 Norte 0 -- -- 66
2019-01-21 01:00:00 8.3 22 Norte 42 Norte 0 -- -- 68
2019-01-21 00:00:00 8.4 19 Norte 39 Norte 0 -- -- 66
2019-01-20 23:00:00 8.4 14 Norte 31 Norte 0 -- -- 66
2019-01-20 22:00:00 7.4 7 Nordeste 22 Nordeste 0 -- -- 76
2019-01-20 21:00:00 8.3 14 Nordeste 25 Nordeste 0 -- -- 77
2019-01-20 20:00:00 8.6 14 Nordeste 30 Norte 0 -- -- 76
2019-01-20 19:00:00 8.4 18 Nordeste 31 Nordeste 0 -- -- 76
2019-01-20 18:00:00 8.3 12 Nordeste 37 Este 0 -- -- 77
2019-01-20 17:00:00 8.8 14 Nordeste 36 Este 0 -- -- 75
2019-01-20 16:00:00 9.1 15 Este 28 Este 0 -- -- 72
2019-01-20 15:00:00 8.8 15 Nordeste 35 Nordeste 0 -- -- 72
2019-01-20 14:00:00 9.1 8 Nordeste 22 Este 0 -- -- 71
2019-01-20 13:00:00 9 4 Sur 9 Sudoeste 0 -- -- 76
2019-01-20 12:00:00 8.2 4 Sur 7 Sur 0 -- -- 79
2019-01-20 11:00:00 7.2 4 Este 9 Este 0 -- -- 79
2019-01-20 10:00:00 6.3 3 Sudoeste 11 Norte 0 -- -- 82
2019-01-20 09:00:00 5.9 5 Norte 14 Nordeste 0 -- -- 81
2019-01-20 08:00:00 4.8 5 Norte 11 Norte 0 -- -- 87
2019-01-20 07:00:00 4.4 4 Nordeste 9 Nordeste 0 -- -- 90
2019-01-20 06:00:00 4.4 4 Nordeste 9 Nordeste 0 -- -- 89
2019-01-20 05:00:00 4.3 5 Norte 9 Nordeste 0 -- -- 88
2019-01-20 04:00:00 3.9 3 Nordeste 6 Nordeste 0 -- -- 90
2019-01-20 03:00:00 3.7 0 Calma 8 Norte 0 -- -- 91
2019-01-20 02:00:00 2.7 2 Nordeste 6 Norte 0 -- -- 93
2019-01-20 01:00:00 3 4 Nordeste 9 Nordeste 0 -- -- 93
2019-01-20 00:00:00 2.9 5 Nordeste 10 Nordeste 0 -- -- 93
2019-01-19 23:00:00 3.1 7 Nordeste 14 Nordeste 0 -- -- 90
2019-01-19 22:00:00 3.6 8 Nordeste 13 Nordeste 0 -- -- 89
2019-01-19 21:00:00 4.2 6 Nordeste 10 Nordeste 0 -- -- 88
2019-01-19 20:00:00 5.4 4 Norte 5 Norte 0 -- -- 85
2019-01-19 19:00:00 6.2 2 Nordeste 4 Nordeste 0 -- -- 82
2019-01-19 18:00:00 7.9 2 Nordeste 8 Sur 0 -- -- 78
2019-01-19 17:00:00 10.5 5 Sudeste 19 Sur 0 -- -- 68
2019-01-19 16:00:00 11.9 12 Sur 19 Sur 0 -- -- 62
2019-01-19 15:00:00 12.9 11 Sur 19 Sur 0 -- -- 48
2019-01-19 14:00:00 12.2 6 Sur 15 Sur 0 -- -- 54
2019-01-19 13:00:00 11.6 3 Sur 10 Sur 0 -- -- 56
2019-01-19 12:00:00 10 5 Sur 12 Sur 0 -- -- 61
2019-01-19 11:00:00 9.8 5 Sur 8 Sudoeste 0 -- -- 63
2019-01-19 10:00:00 8.1 0 Calma 17 Nordeste 0 -- -- 69
2019-01-19 09:00:00 4.1 12 Nordeste 19 Nordeste 0 -- -- 79
2019-01-19 08:00:00 3.5 13 Nordeste 19 Nordeste 0 -- -- 80
2019-01-19 07:00:00 3.4 12 Nordeste 18 Nordeste 0 -- -- 81
2019-01-19 06:00:00 3.4 5 Nordeste 13 Nordeste 0 -- -- 82
2019-01-19 05:00:00 3.8 2 Norte 7 Norte 0 -- -- 82
2019-01-19 04:00:00 4.5 3 Norte 5 Nordeste 0 -- -- 82
2019-01-19 03:00:00 4 3 Nordeste 6 Nordeste 0 -- -- 86
2019-01-19 02:00:00 3.9 2 Norte 8 Norte 0 -- -- 84
2019-01-19 01:00:00 3.9 2 Norte 8 Norte 0 -- -- 84
2019-01-19 00:00:00 3.9 4 Norte 9 Nordeste 0 -- -- 82